Somerset, CO (81434)

2:27 PM MDT on October 21, 2014 (GMT -0600)
KCORIDGW2 | Change Station
CLOSE
Current Station
Personal Weather Station
Location: Ridgway, CO
Elevation: 7326 ft
Nearby Weather Stations

Elev 7326 ft 38.90 °N, 107.45 °W | Updated 4 seconds ago

Overcast
Overcast
55.3 °F
Feels Like 55.3 °F
N
2.0
Wind Variable Wind from ESE
Gusts 0.0 mph

Today
High -- | Low -- °F
--% Chance of Precip.
Yesterday
High -- | Low -- °F
Precip. -- in
7:24 AM 6:22 PM
Waning Crescent, 4% visible
Pressure 29.86 in
Visibility 10.0 miles
Clouds Few 6000 ft
Scattered Clouds 9000 ft
Mostly Cloudy 10000 ft
Dew Point 46 °F
Humidity 70%
Rainfall 0.00 in
Snow Depth 0 in , 0 in
UV 3 out of 12
Pollen 1.90 out of 12
Air Quality Not available.
Flu Activity Sporadic
METAR KASE 211953Z COR 30013G19KT 10SM FEW060 SCT090 BKN100 14/03 A3011 RMK AO2 SLP112 T01390033

More Conditions Fewer Conditions

Pressure 29.86 in
Visibility 10.0 miles
Clouds Few 6000 ft
Scattered Clouds 9000 ft
Mostly Cloudy 10000 ft
Dew Point 46 °F
Humidity 70%
Rainfall 0.00 in
Snow Depth 0 in , 0 in
UV 3 out of 12
Pollen 1.90 out of 12
Air Quality Not available.
Flu Activity Sporadic
METAR KASE 211953Z COR 30013G19KT 10SM FEW060 SCT090 BKN100 14/03 A3011 RMK AO2 SLP112 T01390033

More Conditions Fewer Conditions

10-Day Weather Forecast

Almanac

Astronomy

Oct. 21, 2014 Rise Set
Actual Time 7:24 AM MDT 6:22 PM MDT
Civil Twilight 6:57 AM MDT 6:49 PM MDT
Nautical Twilight 6:26 AM MDT 7:20 PM MDT
Astronomical Twilight 5:55 AM MDT 7:51 PM MDT
Moon 5:12 AM MDT 5:16 PM MDT
Length of Visible Light 11h 51m
Length of Day
10h 57m
Tomorrow will be 2m 23s shorter.
Waning Crescent, 4% of the Moon is Illuminated
Today
Waning Crescent
Oct 23
New
Oct 30
First Quarter
Nov 6
Full
Nov 14
Last Quarter

Today's Extremes

State Highs State Lows

Community

WunderPhotos

Upload Photos

1,763,766 photos uploaded!

Nearby

Snow Depth

Station Depth Elevation
North Lost Trail 0 in 9200 ft
Overland Reservoir 0 in 9880 ft
Park Reservoir 0 in 9960 ft
Park Cone 0 in 9600 ft
Brumley 0 in 10600 ft

Earthquake Activity

City Distance Mag. Time & Date
No recent earthquake activity has been reported nearby.
Minimum magnitude displayed is 2.5.

Coastal Water Temperatures

Place Temperature
No Stations Reporting

Nearby Weather Stations